createdAt,value
2023-12-04T00:03:45.065Z,43.90
2023-12-04T00:09:46.902Z,47.78
2023-12-04T00:15:48.761Z,44.33
2023-12-04T00:21:50.709Z,41.88
2023-12-04T00:27:52.602Z,42.47
2023-12-04T00:33:54.488Z,42.97
2023-12-04T00:39:56.375Z,42.03
2023-12-04T00:45:58.397Z,45.88
2023-12-04T00:52:00.339Z,44.58
2023-12-04T00:58:02.196Z,40.50
2023-12-04T01:04:04.305Z,42.65
2023-12-04T01:10:06.657Z,45.30
2023-12-04T01:16:09.369Z,42.38
2023-12-04T01:22:11.265Z,42.70
2023-12-04T01:28:13.021Z,44.15
2023-12-04T01:34:14.800Z,36.03
2023-12-04T01:40:16.764Z,36.30
2023-12-04T01:46:19.166Z,36.60
2023-12-04T01:52:21.027Z,32.80
2023-12-04T01:58:22.876Z,34.38
2023-12-04T02:04:24.876Z,36.78
2023-12-04T02:10:26.782Z,34.95
2023-12-04T02:16:30.440Z,34.88
2023-12-04T02:22:32.274Z,33.33
2023-12-04T02:28:37.073Z,31.30
2023-12-04T02:34:42.702Z,32.45
2023-12-04T02:40:44.797Z,30.67
2023-12-04T02:46:47.993Z,33.13
2023-12-04T02:52:49.778Z,31.48
2023-12-04T02:58:51.576Z,32.95
2023-12-04T03:04:54.739Z,32.03
2023-12-04T03:10:56.574Z,30.45
2023-12-04T03:16:58.513Z,31.08
2023-12-04T03:23:00.327Z,29.70
2023-12-04T03:29:02.246Z,29.80
2023-12-04T03:35:04.293Z,30.30
2023-12-04T03:41:06.286Z,29.55
2023-12-04T03:47:08.133Z,30.38
2023-12-04T03:53:09.910Z,30.20
2023-12-04T03:59:12.051Z,29.60
2023-12-04T04:05:13.917Z,28.52
2023-12-04T04:11:15.782Z,25.45
2023-12-04T04:17:17.580Z,29.48
2023-12-04T04:23:19.324Z,30.60
2023-12-04T04:29:21.172Z,28.30
2023-12-04T04:35:22.952Z,29.10
2023-12-04T04:41:24.713Z,28.52
2023-12-04T04:47:26.516Z,28.67
2023-12-04T04:53:28.302Z,25.42
2023-12-04T04:59:31.483Z,26.92
2023-12-04T05:05:33.247Z,25.75
2023-12-04T05:11:35.085Z,25.27
2023-12-04T05:17:36.894Z,25.25
2023-12-04T05:23:41.848Z,27.17
2023-12-04T05:29:43.662Z,24.60
2023-12-04T05:35:45.558Z,25.00
2023-12-04T05:41:47.428Z,28.83
2023-12-04T05:47:49.248Z,27.75
2023-12-04T05:53:51.030Z,25.95
2023-12-04T05:59:52.813Z,27.52
2023-12-04T06:05:57.766Z,28.02
2023-12-04T06:12:07.550Z,26.60
2023-12-04T06:18:09.550Z,28.35
2023-12-04T06:24:12.109Z,27.27
2023-12-04T06:30:14.709Z,26.58
2023-12-04T06:36:18.576Z,26.80
2023-12-04T06:42:20.666Z,26.83
2023-12-04T06:48:22.827Z,25.48
2023-12-04T06:54:24.669Z,26.23
2023-12-04T07:00:27.025Z,26.48
2023-12-04T07:06:28.864Z,26.42
2023-12-04T07:12:30.627Z,26.65
2023-12-04T07:18:32.479Z,26.25
2023-12-04T07:24:34.435Z,28.67
2023-12-04T07:30:36.303Z,24.80
2023-12-04T07:36:38.133Z,25.55
2023-12-04T07:42:40.129Z,26.20
2023-12-04T07:48:43.856Z,23.15
2023-12-04T07:54:45.806Z,24.30
2023-12-04T08:00:47.788Z,22.38
2023-12-04T08:06:49.941Z,22.38
2023-12-04T08:12:52.278Z,22.38
2023-12-04T08:18:54.273Z,23.70
2023-12-04T08:24:56.113Z,23.92
2023-12-04T08:30:57.893Z,21.88
2023-12-04T08:36:59.803Z,20.90
2023-12-04T08:43:01.732Z,21.58
2023-12-04T08:49:03.647Z,21.05
2023-12-04T08:55:07.316Z,20.90
2023-12-04T09:01:09.319Z,22.13
2023-12-04T09:08:26.620Z,21.10
2023-12-04T09:13:33.901Z,19.83
2023-12-04T09:19:36.162Z,21.25
2023-12-04T09:25:38.248Z,19.55
2023-12-04T09:31:40.115Z,19.05
2023-12-04T09:37:41.957Z,21.25
2023-12-04T09:43:45.307Z,17.77
2023-12-04T09:49:47.920Z,19.23
2023-12-04T09:55:50.740Z,16.73
2023-12-04T10:01:53.257Z,19.80
2023-12-04T10:07:55.112Z,19.27
2023-12-04T10:13:59.880Z,17.92
2023-12-04T10:20:16.996Z,18.75
2023-12-04T10:26:19.085Z,17.52
2023-12-04T10:32:24.347Z,20.88
2023-12-04T10:38:28.137Z,18.63
2023-12-04T10:44:32.223Z,17.20
2023-12-04T10:50:41.078Z,20.77
2023-12-04T10:56:45.829Z,18.58
2023-12-04T11:02:49.640Z,16.83
2023-12-04T11:08:58.296Z,18.48
2023-12-04T11:15:05.875Z,16.23
2023-12-04T11:21:12.431Z,16.95
2023-12-04T11:27:17.198Z,18.25
2023-12-04T11:33:19.878Z,17.13
2023-12-04T11:39:21.900Z,20.15
2023-12-04T11:45:23.704Z,25.02
2023-12-04T11:51:41.054Z,18.23
2023-12-04T11:57:43.559Z,17.75
2023-12-04T12:03:45.703Z,18.60
2023-12-04T12:09:49.610Z,18.10
2023-12-04T12:15:53.725Z,18.77
2023-12-04T12:21:55.869Z,20.05
2023-12-04T12:27:58.216Z,15.85
2023-12-04T12:34:00.316Z,17.80
2023-12-04T12:40:02.549Z,18.98
2023-12-04T12:46:07.632Z,19.67
2023-12-04T12:52:11.847Z,18.00
2023-12-04T12:58:23.025Z,17.38
2023-12-04T13:04:24.931Z,16.55
2023-12-04T13:10:26.851Z,15.07
2023-12-04T13:16:28.664Z,13.95
2023-12-04T13:22:30.588Z,16.42
2023-12-04T13:28:36.444Z,13.68
2023-12-04T13:34:43.612Z,14.40
2023-12-04T13:41:00.433Z,14.25
2023-12-04T13:47:02.350Z,13.75
2023-12-04T13:53:05.114Z,14.35
2023-12-04T13:59:08.762Z,13.85
2023-12-04T14:05:10.744Z,18.35
2023-12-04T14:11:13.397Z,13.73
2023-12-04T14:17:15.354Z,13.77
2023-12-04T14:23:17.538Z,14.20
2023-12-04T14:29:19.357Z,15.77
2023-12-04T14:35:21.486Z,12.73
2023-12-04T14:41:23.288Z,13.63
2023-12-04T14:47:25.258Z,14.05
2023-12-04T14:53:31.924Z,15.65
2023-12-04T14:59:39.618Z,15.32
2023-12-04T15:06:01.827Z,14.50
2023-12-04T15:12:22.087Z,14.38
2023-12-04T15:18:45.736Z,16.08
2023-12-04T15:24:47.670Z,12.45
2023-12-04T15:30:50.404Z,13.43
2023-12-04T15:36:52.495Z,13.10
2023-12-04T15:42:54.455Z,10.20
2023-12-04T15:48:57.310Z,11.20
2023-12-04T15:54:59.282Z,11.05
2023-12-04T16:01:02.017Z,9.10
2023-12-04T16:07:04.081Z,11.15
2023-12-04T16:13:06.175Z,9.23
2023-12-04T16:19:08.197Z,13.63
2023-12-04T16:25:10.968Z,9.50
2023-12-04T16:31:13.898Z,8.60
2023-12-04T16:37:16.125Z,9.05
2023-12-04T16:43:18.478Z,8.93
2023-12-04T16:49:20.445Z,9.02
2023-12-04T16:55:22.490Z,9.18
2023-12-04T17:01:24.495Z,8.90
2023-12-04T17:07:26.752Z,9.65
2023-12-04T17:13:28.551Z,10.88
2023-12-04T17:19:32.699Z,10.85
2023-12-04T17:25:36.663Z,7.85
2023-12-04T17:31:40.062Z,9.93
2023-12-04T17:37:42.254Z,9.25
2023-12-04T17:43:44.118Z,11.15
2023-12-04T17:49:49.582Z,10.23
2023-12-04T17:55:51.457Z,9.30
2023-12-04T18:01:53.575Z,9.98
2023-12-04T18:07:55.528Z,10.63
2023-12-04T18:13:57.326Z,9.70
2023-12-04T18:19:59.228Z,10.63
2023-12-04T18:26:01.933Z,10.60
2023-12-04T18:32:05.477Z,9.80
2023-12-04T18:38:27.426Z,9.75
2023-12-04T18:44:29.511Z,8.95
2023-12-04T18:50:33.691Z,10.02
2023-12-04T18:56:35.576Z,8.65
2023-12-04T19:02:37.624Z,9.68
2023-12-04T19:08:40.289Z,9.15
2023-12-04T19:14:42.331Z,10.70
2023-12-04T19:20:44.982Z,9.65
2023-12-04T19:26:48.405Z,10.98
2023-12-04T19:32:50.353Z,10.90
2023-12-04T19:38:52.172Z,11.52
2023-12-04T19:44:57.133Z,10.55
2023-12-04T19:51:00.028Z,10.60
2023-12-04T19:57:04.423Z,11.48
2023-12-04T20:03:06.689Z,9.38
2023-12-04T20:09:09.492Z,13.02
2023-12-04T20:15:11.948Z,12.18
2023-12-04T20:21:16.051Z,11.68
2023-12-04T20:27:18.463Z,8.85
2023-12-04T20:33:21.524Z,11.05
2023-12-04T20:39:23.512Z,9.75
2023-12-04T20:45:29.608Z,11.23
2023-12-04T20:51:32.657Z,10.60
2023-12-04T20:57:34.737Z,9.70
2023-12-04T21:03:37.179Z,12.38
2023-12-04T21:09:39.150Z,15.80
2023-12-04T21:15:41.119Z,10.07
2023-12-04T21:21:44.491Z,12.73
2023-12-04T21:27:46.416Z,9.55
2023-12-04T21:33:48.319Z,11.13
2023-12-04T21:39:53.039Z,10.48
2023-12-04T21:45:55.146Z,9.70
2023-12-04T21:51:57.602Z,11.40
2023-12-04T21:57:59.413Z,12.38
2023-12-04T22:04:01.324Z,10.95
2023-12-04T22:10:03.975Z,12.65
2023-12-04T22:16:17.379Z,11.30
2023-12-04T22:22:21.639Z,12.23
2023-12-04T22:28:23.446Z,11.93
2023-12-04T22:34:26.652Z,13.88
2023-12-04T22:40:29.419Z,13.68
2023-12-04T22:46:31.421Z,13.32
2023-12-04T22:52:33.171Z,16.15
2023-12-04T22:58:35.001Z,16.67
2023-12-04T23:04:36.967Z,17.23
2023-12-04T23:10:38.820Z,17.52
2023-12-04T23:16:43.989Z,17.55
2023-12-04T23:22:45.812Z,16.75
2023-12-04T23:28:48.820Z,17.08
2023-12-04T23:34:50.605Z,16.75
2023-12-04T23:40:52.389Z,13.38
2023-12-04T23:46:56.015Z,16.10
2023-12-04T23:52:58.575Z,17.42
2023-12-04T23:59:00.618Z,19.70
